createdAt,value
2018-03-08T00:00:07.699Z,990.6
2018-03-08T00:01:10.406Z,990.5
2018-03-08T00:02:12.843Z,990.5
2018-03-08T00:03:15.549Z,990.6
2018-03-08T00:04:17.968Z,990.5
2018-03-08T00:05:20.392Z,990.5
2018-03-08T00:06:22.816Z,990.5
2018-03-08T00:07:25.240Z,990.5
2018-03-08T00:08:27.671Z,990.5
2018-03-08T00:09:30.380Z,990.5
2018-03-08T00:10:32.802Z,990.5
2018-03-08T00:11:35.239Z,990.5
2018-03-08T00:12:37.664Z,990.5
2018-03-08T00:13:40.084Z,990.5
2018-03-08T00:14:42.505Z,990.5
2018-03-08T00:15:45.228Z,990.5
2018-03-08T00:16:47.653Z,990.5
2018-03-08T00:17:50.078Z,990.5
2018-03-08T00:18:52.782Z,990.5
2018-03-08T00:19:55.198Z,990.5
2018-03-08T00:20:57.639Z,990.5
2018-03-08T00:22:00.056Z,990.5
2018-03-08T00:23:02.488Z,990.5
2018-03-08T00:24:04.913Z,990.5
2018-03-08T00:25:07.350Z,990.5
2018-03-08T00:26:09.759Z,990.6
2018-03-08T00:27:12.185Z,990.5
2018-03-08T00:28:14.621Z,990.6
2018-03-08T00:29:17.043Z,990.5
2018-03-08T00:30:19.473Z,990.5
2018-03-08T00:31:21.898Z,990.5
2018-03-08T00:32:24.315Z,990.5
2018-03-08T00:33:27.042Z,990.6
2018-03-08T00:34:29.470Z,990.5
2018-03-08T00:35:32.173Z,990.5
2018-03-08T00:36:34.605Z,990.5
2018-03-08T00:37:37.317Z,990.5
2018-03-08T00:38:39.739Z,990.5
2018-03-08T00:39:42.168Z,990.5
2018-03-08T00:40:44.592Z,990.5
2018-03-08T00:41:47.019Z,990.5
2018-03-08T00:42:49.735Z,990.5
2018-03-08T00:43:52.165Z,990.5
2018-03-08T00:44:54.581Z,990.5
2018-03-08T00:45:57.008Z,990.5
2018-03-08T00:46:59.437Z,990.5
2018-03-08T00:48:01.863Z,990.5
2018-03-08T00:49:04.286Z,990.5
2018-03-08T00:50:06.712Z,990.5
2018-03-08T00:51:09.135Z,990.5
2018-03-08T00:52:11.573Z,990.5
2018-03-08T00:53:13.998Z,990.5
2018-03-08T00:54:16.428Z,990.4
2018-03-08T00:55:19.139Z,990.4
2018-03-08T00:56:21.555Z,990.4
2018-03-08T00:57:23.975Z,990.4
2018-03-08T00:58:26.988Z,990.4
2018-03-08T00:59:29.430Z,990.4
2018-03-08T01:00:32.124Z,990.4
2018-03-08T01:01:34.548Z,990.4
2018-03-08T01:02:36.975Z,990.4
2018-03-08T01:03:39.405Z,990.5
2018-03-08T01:04:41.836Z,990.5
2018-03-08T01:05:44.270Z,990.5
2018-03-08T01:06:46.683Z,990.5
2018-03-08T01:07:49.166Z,990.4
2018-03-08T01:08:51.589Z,990.5
2018-03-08T01:09:54.024Z,990.5
2018-03-08T01:10:56.451Z,990.5
2018-03-08T01:11:58.873Z,990.5
2018-03-08T01:13:01.297Z,990.5
2018-03-08T01:14:03.728Z,990.5
2018-03-08T01:15:06.150Z,990.5
2018-03-08T01:16:08.575Z,990.5
2018-03-08T01:17:11.001Z,990.5
2018-03-08T01:18:13.422Z,990.5
2018-03-08T01:19:15.843Z,990.5
2018-03-08T01:20:18.277Z,990.5
2018-03-08T01:21:20.695Z,990.5
2018-03-08T01:22:23.436Z,990.5
2018-03-08T01:23:26.140Z,990.5
2018-03-08T01:24:28.568Z,990.5
2018-03-08T01:25:31.007Z,990.5
2018-03-08T01:26:33.727Z,990.5
2018-03-08T01:27:36.722Z,990.5
2018-03-08T01:28:39.151Z,990.5
2018-03-08T01:29:41.863Z,990.5
2018-03-08T01:30:44.575Z,990.5
2018-03-08T01:31:47.006Z,990.5
2018-03-08T01:32:49.410Z,990.5
2018-03-08T01:33:51.834Z,990.5
2018-03-08T01:34:54.267Z,990.5
2018-03-08T01:35:56.967Z,990.6
2018-03-08T01:36:59.393Z,990.5
2018-03-08T01:38:01.813Z,990.6
2018-03-08T01:39:04.246Z,990.5
2018-03-08T01:40:06.673Z,990.5
2018-03-08T01:41:09.096Z,990.5
2018-03-08T01:42:11.515Z,990.5
2018-03-08T01:43:13.942Z,990.6
2018-03-08T01:44:16.367Z,990.5
2018-03-08T01:45:18.791Z,990.5
2018-03-08T01:46:21.234Z,990.5
2018-03-08T01:47:23.944Z,990.5
2018-03-08T01:48:26.658Z,990.5
2018-03-08T01:49:29.079Z,990.5
2018-03-08T01:50:31.504Z,990.5
2018-03-08T01:51:34.226Z,990.5
2018-03-08T01:52:36.641Z,990.5
2018-03-08T01:53:39.070Z,990.5
2018-03-08T01:54:41.496Z,990.5
2018-03-08T01:55:43.911Z,990.5
2018-03-08T01:56:46.634Z,990.5
2018-03-08T01:57:49.063Z,990.5
2018-03-08T01:58:51.477Z,990.5
2018-03-08T01:59:54.195Z,990.5
2018-03-08T02:00:56.621Z,990.5
2018-03-08T02:01:59.049Z,990.5
2018-03-08T02:03:01.467Z,990.5
2018-03-08T02:04:03.894Z,990.5
2018-03-08T02:05:06.308Z,990.5
2018-03-08T02:06:08.750Z,990.5
2018-03-08T02:07:11.166Z,990.5
2018-03-08T02:08:13.610Z,990.5
2018-03-08T02:09:16.618Z,990.4
2018-03-08T02:10:19.032Z,990.4
2018-03-08T02:11:21.462Z,990.4
2018-03-08T02:12:23.881Z,990.4
2018-03-08T02:13:26.307Z,990.4
2018-03-08T02:14:28.743Z,990.4
2018-03-08T02:15:31.480Z,990.4
2018-03-08T02:16:33.879Z,990.4
2018-03-08T02:17:36.618Z,990.3
2018-03-08T02:18:39.044Z,990.4
2018-03-08T02:19:41.746Z,990.4
2018-03-08T02:20:44.177Z,990.4
2018-03-08T02:21:46.596Z,990.4
2018-03-08T02:22:49.012Z,990.4
2018-03-08T02:23:51.444Z,990.4
2018-03-08T02:24:53.874Z,990.4
2018-03-08T02:25:56.584Z,990.4
2018-03-08T02:26:59.292Z,990.5
2018-03-08T02:28:01.725Z,990.4
2018-03-08T02:29:04.434Z,990.4
2018-03-08T02:30:06.861Z,990.4
2018-03-08T02:31:09.281Z,990.4
2018-03-08T02:32:12.012Z,990.5
2018-03-08T02:33:14.430Z,990.4
2018-03-08T02:34:16.865Z,990.5
2018-03-08T02:35:19.283Z,990.5
2018-03-08T02:36:22.006Z,990.5
2018-03-08T02:37:24.434Z,990.5
2018-03-08T02:38:26.862Z,990.5
2018-03-08T02:39:29.282Z,990.5
2018-03-08T02:40:31.712Z,990.5
2018-03-08T02:41:34.119Z,990.5
2018-03-08T02:42:36.549Z,990.5
2018-03-08T02:43:39.573Z,990.5
2018-03-08T02:44:41.989Z,990.5
2018-03-08T02:45:44.413Z,990.5
2018-03-08T02:46:46.833Z,990.5
2018-03-08T02:47:49.262Z,990.5
2018-03-08T02:48:51.692Z,990.5
2018-03-08T02:49:54.123Z,990.5
2018-03-08T02:50:56.539Z,990.5
2018-03-08T02:51:59.252Z,990.5
2018-03-08T02:53:01.679Z,990.5
2018-03-08T02:54:04.100Z,990.5
2018-03-08T02:55:06.525Z,990.5
2018-03-08T02:56:09.248Z,990.5
2018-03-08T02:57:11.974Z,990.5
2018-03-08T02:58:14.686Z,990.5
2018-03-08T02:59:17.429Z,990.5
2018-03-08T03:00:19.914Z,990.5
2018-03-08T03:01:22.637Z,990.5
2018-03-08T03:02:25.064Z,990.6
2018-03-08T03:03:27.476Z,990.5
2018-03-08T03:04:29.894Z,990.5
2018-03-08T03:05:32.624Z,990.6
2018-03-08T03:06:35.033Z,990.6
2018-03-08T03:07:37.775Z,990.6
2018-03-08T03:08:40.198Z,990.5
2018-03-08T03:09:42.627Z,990.6
2018-03-08T03:10:45.362Z,990.6
2018-03-08T03:11:47.782Z,990.6
2018-03-08T03:12:50.207Z,990.5
2018-03-08T03:13:52.632Z,990.6
2018-03-08T03:14:55.059Z,990.5
2018-03-08T03:15:57.760Z,990.5
2018-03-08T03:17:00.191Z,990.5
2018-03-08T03:18:02.895Z,990.5
2018-03-08T03:19:05.318Z,990.5
2018-03-08T03:20:07.747Z,990.4
2018-03-08T03:21:10.171Z,990.5
2018-03-08T03:22:12.604Z,990.5
2018-03-08T03:23:15.026Z,990.5
2018-03-08T03:24:17.739Z,990.5
2018-03-08T03:25:20.149Z,990.5
2018-03-08T03:26:22.578Z,990.5
2018-03-08T03:27:25.004Z,990.6
2018-03-08T03:28:27.427Z,990.5
2018-03-08T03:29:29.845Z,990.6
2018-03-08T03:30:32.283Z,990.6
2018-03-08T03:31:34.986Z,990.6
2018-03-08T03:32:37.421Z,990.6
2018-03-08T03:33:40.433Z,990.6
2018-03-08T03:34:43.146Z,990.6
2018-03-08T03:35:45.570Z,990.5
2018-03-08T03:36:47.999Z,990.6
2018-03-08T03:37:50.416Z,990.5
2018-03-08T03:38:52.848Z,990.5
2018-03-08T03:39:55.274Z,990.5
2018-03-08T03:40:57.702Z,990.6
2018-03-08T03:42:00.126Z,990.6
2018-03-08T03:43:02.834Z,990.6
2018-03-08T03:44:05.259Z,990.6
2018-03-08T03:45:07.683Z,990.5
2018-03-08T03:46:10.104Z,990.6
2018-03-08T03:47:12.534Z,990.6
2018-03-08T03:48:14.944Z,990.6
2018-03-08T03:49:17.378Z,990.6
2018-03-08T03:50:19.793Z,990.6
2018-03-08T03:51:22.216Z,990.6
2018-03-08T03:52:24.645Z,990.6
2018-03-08T03:53:27.075Z,990.6
2018-03-08T03:54:29.500Z,990.6
2018-03-08T03:55:31.915Z,990.6
2018-03-08T03:56:34.335Z,990.6
2018-03-08T03:57:36.771Z,990.6
2018-03-08T03:58:39.189Z,990.6
2018-03-08T03:59:41.618Z,990.6
2018-03-08T04:00:44.029Z,990.6
2018-03-08T04:01:46.460Z,990.6
2018-03-08T04:02:48.892Z,990.7
2018-03-08T04:03:51.311Z,990.6
2018-03-08T04:04:53.724Z,990.6
2018-03-08T04:05:56.438Z,990.6
2018-03-08T04:06:58.862Z,990.6
2018-03-08T04:08:01.579Z,990.7
2018-03-08T04:09:04.010Z,990.6
2018-03-08T04:10:06.421Z,990.6
2018-03-08T04:11:08.846Z,990.7
2018-03-08T04:12:11.320Z,990.6
2018-03-08T04:13:13.693Z,990.6
2018-03-08T04:14:16.402Z,990.6
2018-03-08T04:15:18.819Z,990.5
2018-03-08T04:16:21.247Z,990.5
2018-03-08T04:17:23.681Z,990.5
2018-03-08T04:18:26.106Z,990.6
2018-03-08T04:19:28.513Z,990.6
2018-03-08T04:20:30.937Z,990.5
2018-03-08T04:21:33.380Z,990.6
2018-03-08T04:22:35.803Z,990.5
2018-03-08T04:23:38.216Z,990.6
2018-03-08T04:24:40.645Z,990.6
2018-03-08T04:25:43.349Z,990.6
2018-03-08T04:26:45.775Z,990.6
2018-03-08T04:27:48.202Z,990.6
2018-03-08T04:28:50.619Z,990.7
2018-03-08T04:29:53.042Z,990.6
2018-03-08T04:30:55.766Z,990.7
2018-03-08T04:31:58.183Z,990.7
2018-03-08T04:33:00.604Z,990.6
2018-03-08T04:34:03.025Z,990.6
2018-03-08T04:35:05.439Z,990.7
2018-03-08T04:36:07.876Z,990.7
2018-03-08T04:37:10.587Z,990.7
2018-03-08T04:38:13.010Z,990.7
2018-03-08T04:39:15.432Z,990.7
2018-03-08T04:40:18.144Z,990.7
2018-03-08T04:41:20.571Z,990.7
2018-03-08T04:42:22.990Z,990.8
2018-03-08T04:43:25.409Z,990.7
2018-03-08T04:44:27.829Z,990.7
2018-03-08T04:45:30.566Z,990.7
2018-03-08T04:46:32.991Z,990.7
2018-03-08T04:47:35.713Z,990.7
2018-03-08T04:48:38.418Z,990.8
2018-03-08T04:49:40.837Z,990.8
2018-03-08T04:50:43.552Z,990.8
2018-03-08T04:51:45.976Z,990.8
2018-03-08T04:52:48.400Z,990.8
2018-03-08T04:53:50.829Z,990.8
2018-03-08T04:54:53.247Z,990.8
2018-03-08T04:55:55.668Z,990.8
2018-03-08T04:56:58.102Z,990.8
2018-03-08T04:58:00.527Z,990.7
2018-03-08T04:59:02.945Z,990.7
2018-03-08T05:00:05.365Z,990.7
2018-03-08T05:01:07.790Z,990.7
2018-03-08T05:02:10.210Z,990.7
2018-03-08T05:03:12.642Z,990.7
2018-03-08T05:04:15.337Z,990.7
2018-03-08T05:05:18.050Z,990.7
2018-03-08T05:06:20.474Z,990.7
2018-03-08T05:07:23.183Z,990.7
2018-03-08T05:08:26.178Z,990.7
2018-03-08T05:09:28.885Z,990.7
2018-03-08T05:10:31.300Z,990.7
2018-03-08T05:11:34.017Z,990.8
2018-03-08T05:12:36.448Z,990.8
2018-03-08T05:13:39.145Z,990.8
2018-03-08T05:14:41.572Z,990.8
2018-03-08T05:15:44.287Z,990.8
2018-03-08T05:16:46.708Z,990.8
2018-03-08T05:17:49.144Z,990.9
2018-03-08T05:18:51.551Z,990.8
2018-03-08T05:19:54.264Z,990.8
2018-03-08T05:20:56.975Z,990.9
2018-03-08T05:21:59.393Z,990.9
2018-03-08T05:23:01.825Z,990.9
2018-03-08T05:24:04.263Z,990.9
2018-03-08T05:25:06.688Z,990.9
2018-03-08T05:26:09.112Z,991
2018-03-08T05:27:11.547Z,991
2018-03-08T05:28:13.963Z,990.9
2018-03-08T05:29:16.388Z,990.9
2018-03-08T05:30:18.812Z,990.9
2018-03-08T05:31:21.231Z,990.9
2018-03-08T05:32:23.652Z,991
2018-03-08T05:33:26.082Z,991
2018-03-08T05:34:28.788Z,991
2018-03-08T05:35:31.510Z,991
2018-03-08T05:36:33.935Z,991
2018-03-08T05:37:36.353Z,991
2018-03-08T05:38:38.782Z,991.1
2018-03-08T05:39:41.513Z,991
2018-03-08T05:40:44.221Z,991.1
2018-03-08T05:41:46.653Z,991.1
2018-03-08T05:42:49.078Z,991.1
2018-03-08T05:43:51.498Z,991.1
2018-03-08T05:44:53.946Z,991.2
2018-03-08T05:45:56.361Z,991.2
2018-03-08T05:46:58.776Z,991.2
2018-03-08T05:48:01.207Z,991.1
2018-03-08T05:49:03.628Z,991.2
2018-03-08T05:50:06.052Z,991.2
2018-03-08T05:51:08.762Z,991.2
2018-03-08T05:52:11.205Z,991.2
2018-03-08T05:53:13.630Z,991.1
2018-03-08T05:54:16.053Z,991.2
2018-03-08T05:55:18.482Z,991.2
2018-03-08T05:56:20.899Z,991.2
2018-03-08T05:57:23.325Z,991.2
2018-03-08T05:58:26.032Z,991.2
2018-03-08T05:59:28.447Z,991.3
2018-03-08T06:00:30.879Z,991.2
2018-03-08T06:01:33.299Z,991.3
2018-03-08T06:02:35.736Z,991.3
2018-03-08T06:03:38.166Z,991.3
2018-03-08T06:04:40.594Z,991.3
2018-03-08T06:05:43.022Z,991.3
2018-03-08T06:06:45.455Z,991.2
2018-03-08T06:07:47.880Z,991.3
2018-03-08T06:08:50.311Z,991.3
2018-03-08T06:09:52.732Z,991.3
2018-03-08T06:10:55.167Z,991.3
2018-03-08T06:11:57.872Z,991.3
2018-03-08T06:13:00.298Z,991.4
2018-03-08T06:14:02.729Z,991.4
2018-03-08T06:15:05.154Z,991.4
2018-03-08T06:16:07.870Z,991.4
2018-03-08T06:17:10.297Z,991.4
2018-03-08T06:18:12.707Z,991.4
2018-03-08T06:19:15.144Z,991.3
2018-03-08T06:20:17.563Z,991.4
2018-03-08T06:21:19.989Z,991.4
2018-03-08T06:22:22.416Z,991.4
2018-03-08T06:23:24.846Z,991.4
2018-03-08T06:24:27.585Z,991.4
2018-03-08T06:25:29.994Z,991.5
2018-03-08T06:26:32.424Z,991.4
2018-03-08T06:27:34.843Z,991.4
2018-03-08T06:28:37.277Z,991.4
2018-03-08T06:29:39.699Z,991.4
2018-03-08T06:30:42.416Z,991.4
2018-03-08T06:31:45.130Z,991.4
2018-03-08T06:32:47.846Z,991.4
2018-03-08T06:33:50.272Z,991.4
2018-03-08T06:34:52.708Z,991.5
2018-03-08T06:35:55.128Z,991.5
2018-03-08T06:36:57.553Z,991.5
2018-03-08T06:37:59.984Z,991.5
2018-03-08T06:39:02.449Z,991.5
2018-03-08T06:40:05.181Z,991.5
2018-03-08T06:41:07.606Z,991.5
2018-03-08T06:42:10.018Z,991.5
2018-03-08T06:43:12.729Z,991.5
2018-03-08T06:44:15.444Z,991.6
2018-03-08T06:45:17.877Z,991.6
2018-03-08T06:46:20.873Z,991.6
2018-03-08T06:47:23.581Z,991.6
2018-03-08T06:48:26.004Z,991.6
2018-03-08T06:49:28.430Z,991.5
2018-03-08T06:50:31.137Z,991.6
2018-03-08T06:51:33.561Z,991.5
2018-03-08T06:52:35.983Z,991.6
2018-03-08T06:53:38.696Z,991.6
2018-03-08T06:54:41.122Z,991.6
2018-03-08T06:55:43.540Z,991.6
2018-03-08T06:56:45.967Z,991.6
2018-03-08T06:57:48.395Z,991.6
2018-03-08T06:58:50.810Z,991.6
2018-03-08T06:59:53.245Z,991.5
2018-03-08T07:00:55.677Z,991.6
2018-03-08T07:01:58.100Z,991.6
2018-03-08T07:03:00.519Z,991.6
2018-03-08T07:04:02.944Z,991.6
2018-03-08T07:05:05.376Z,991.6
2018-03-08T07:06:08.095Z,991.6
2018-03-08T07:07:10.516Z,991.6
2018-03-08T07:08:12.929Z,991.6
2018-03-08T07:09:15.347Z,991.7
2018-03-08T07:10:17.780Z,991.6
2018-03-08T07:11:20.200Z,991.7
2018-03-08T07:12:22.616Z,991.6
2018-03-08T07:13:25.037Z,991.6
2018-03-08T07:14:27.455Z,991.6
2018-03-08T07:15:29.891Z,991.7
2018-03-08T07:16:32.324Z,991.7
2018-03-08T07:17:34.729Z,991.7
2018-03-08T07:18:37.453Z,991.7
2018-03-08T07:19:39.880Z,991.6
2018-03-08T07:20:42.584Z,991.7
2018-03-08T07:21:45.000Z,991.7
2018-03-08T07:22:47.715Z,991.7
2018-03-08T07:23:50.130Z,991.7
2018-03-08T07:24:52.561Z,991.7
2018-03-08T07:25:54.984Z,991.7
2018-03-08T07:26:57.697Z,991.7
2018-03-08T07:28:00.115Z,991.7
2018-03-08T07:29:02.552Z,991.7
2018-03-08T07:30:04.976Z,991.7
2018-03-08T07:31:07.412Z,991.7
2018-03-08T07:32:10.106Z,991.7
2018-03-08T07:33:12.546Z,991.7
2018-03-08T07:34:14.955Z,991.7
2018-03-08T07:35:17.685Z,991.7
2018-03-08T07:36:20.688Z,991.8
2018-03-08T07:37:23.110Z,991.8
2018-03-08T07:38:25.531Z,991.7
2018-03-08T07:39:27.951Z,991.8
2018-03-08T07:40:30.654Z,991.8
2018-03-08T07:41:33.089Z,991.8
2018-03-08T07:42:35.804Z,991.8
2018-03-08T07:43:38.221Z,991.8
2018-03-08T07:44:40.648Z,991.8
2018-03-08T07:45:43.075Z,991.8
2018-03-08T07:46:45.792Z,991.8
2018-03-08T07:47:48.212Z,991.8
2018-03-08T07:48:50.650Z,991.8
2018-03-08T07:49:53.087Z,991.8
2018-03-08T07:50:55.829Z,991.8
2018-03-08T07:51:58.463Z,991.8
2018-03-08T07:53:01.032Z,991.8
2018-03-08T07:54:04.060Z,991.7
2018-03-08T07:55:06.933Z,991.8
2018-03-08T07:56:09.342Z,991.8
2018-03-08T07:57:11.767Z,991.8
2018-03-08T07:58:14.204Z,991.8
2018-03-08T07:59:16.620Z,991.8
2018-03-08T08:00:19.120Z,991.8
2018-03-08T08:01:21.505Z,991.9
2018-03-08T08:02:23.934Z,991.8
2018-03-08T08:03:26.361Z,991.9
2018-03-08T08:04:29.072Z,991.9
2018-03-08T08:05:31.768Z,991.9
2018-03-08T08:06:34.188Z,991.9
2018-03-08T08:07:36.923Z,991.9
2018-03-08T08:08:39.341Z,991.9
2018-03-08T08:09:41.773Z,991.9
2018-03-08T08:10:44.189Z,991.9
2018-03-08T08:11:47.188Z,991.9
2018-03-08T08:12:49.618Z,991.9
2018-03-08T08:13:52.041Z,992
2018-03-08T08:14:54.742Z,992
2018-03-08T08:15:57.192Z,992
2018-03-08T08:16:59.595Z,992
2018-03-08T08:18:02.321Z,992
2018-03-08T08:19:04.734Z,992.1
2018-03-08T08:20:07.173Z,992
2018-03-08T08:21:09.659Z,992
2018-03-08T08:22:12.311Z,992.1
2018-03-08T08:23:14.746Z,992
2018-03-08T08:24:17.180Z,992
2018-03-08T08:25:19.608Z,992
2018-03-08T08:26:22.315Z,992.1
2018-03-08T08:27:25.019Z,992
2018-03-08T08:28:27.438Z,992
2018-03-08T08:29:30.174Z,992
2018-03-08T08:30:32.601Z,992
2018-03-08T08:31:35.016Z,992.1
2018-03-08T08:32:37.440Z,992.1
2018-03-08T08:33:39.865Z,992
2018-03-08T08:34:42.295Z,992.1
2018-03-08T08:35:44.711Z,992.1
2018-03-08T08:36:47.138Z,992
2018-03-08T08:37:49.566Z,992.1
2018-03-08T08:38:52.003Z,992.1
2018-03-08T08:39:54.425Z,992.1
2018-03-08T08:40:56.852Z,992.1
2018-03-08T08:41:59.279Z,992.1
2018-03-08T08:43:01.711Z,992.1
2018-03-08T08:44:04.248Z,992.1
2018-03-08T08:45:06.952Z,992.2
2018-03-08T08:46:09.660Z,992.2
2018-03-08T08:47:12.082Z,992.2
2018-03-08T08:48:14.515Z,992.2
2018-03-08T08:49:16.944Z,992.2
2018-03-08T08:50:19.371Z,992.3
2018-03-08T08:51:21.804Z,992.3
2018-03-08T08:52:24.242Z,992.3
2018-03-08T08:53:26.940Z,992.3
2018-03-08T08:54:30.000Z,992.3
2018-03-08T08:55:32.397Z,992.3
2018-03-08T08:56:35.107Z,992.3
2018-03-08T08:57:37.524Z,992.3
2018-03-08T08:58:39.946Z,992.3
2018-03-08T08:59:42.668Z,992.4
2018-03-08T09:00:45.102Z,992.4
2018-03-08T09:01:47.528Z,992.4
2018-03-08T09:02:49.955Z,992.4
2018-03-08T09:03:52.694Z,992.4
2018-03-08T09:04:55.112Z,992.4
2018-03-08T09:05:57.535Z,992.4
2018-03-08T09:06:59.970Z,992.4
2018-03-08T09:08:02.386Z,992.5
2018-03-08T09:09:05.397Z,992.5
2018-03-08T09:10:07.816Z,992.5
2018-03-08T09:11:10.245Z,992.5
2018-03-08T09:12:12.953Z,992.5
2018-03-08T09:13:15.695Z,992.5
2018-03-08T09:14:18.110Z,992.6
2018-03-08T09:15:20.541Z,992.5
2018-03-08T09:16:23.284Z,992.4
2018-03-08T09:17:25.707Z,992.6
2018-03-08T09:18:28.132Z,992.6
2018-03-08T09:19:30.558Z,992.5
2018-03-08T09:20:32.988Z,992.6
2018-03-08T09:21:35.708Z,992.6
2018-03-08T09:22:38.137Z,992.6
2018-03-08T09:23:40.834Z,992.6
2018-03-08T09:24:43.571Z,992.6
2018-03-08T09:25:45.998Z,992.6
2018-03-08T09:26:48.428Z,992.6
2018-03-08T09:27:50.852Z,992.6
2018-03-08T09:28:53.282Z,992.6
2018-03-08T09:29:55.702Z,992.6
2018-03-08T09:30:58.141Z,992.5
2018-03-08T09:32:00.562Z,992.6
2018-03-08T09:33:03.285Z,992.5
2018-03-08T09:34:05.710Z,992.6
2018-03-08T09:35:08.139Z,992.5
2018-03-08T09:36:10.563Z,992.5
2018-03-08T09:37:12.997Z,992.5
2018-03-08T09:38:15.706Z,992.6
2018-03-08T09:39:18.137Z,992.6
2018-03-08T09:40:20.566Z,992.6
2018-03-08T09:41:22.992Z,992.6
2018-03-08T09:42:25.410Z,992.6
2018-03-08T09:43:27.839Z,992.6
2018-03-08T09:44:30.256Z,992.6
2018-03-08T09:45:32.999Z,992.6
2018-03-08T09:46:35.427Z,992.6
2018-03-08T09:47:38.404Z,992.6
2018-03-08T09:48:40.831Z,992.6
2018-03-08T09:49:43.834Z,992.6
2018-03-08T09:50:46.257Z,992.6
2018-03-08T09:51:48.699Z,992.6
2018-03-08T09:52:51.417Z,992.6
2018-03-08T09:53:53.841Z,992.7
2018-03-08T09:54:56.273Z,992.7
2018-03-08T09:55:58.705Z,992.7
2018-03-08T09:57:01.126Z,992.8
2018-03-08T09:58:03.553Z,992.7
2018-03-08T09:59:06.064Z,992.7
2018-03-08T10:00:08.403Z,992.7
2018-03-08T10:01:11.151Z,992.8
2018-03-08T10:02:13.566Z,992.7
2018-03-08T10:03:15.998Z,992.7
2018-03-08T10:04:18.425Z,992.7
2018-03-08T10:05:21.449Z,992.8
2018-03-08T10:06:24.163Z,992.8
2018-03-08T10:07:26.591Z,992.8
2018-03-08T10:08:29.001Z,992.8
2018-03-08T10:09:31.443Z,992.8
2018-03-08T10:10:33.868Z,992.8
2018-03-08T10:11:36.853Z,992.8
2018-03-08T10:12:39.578Z,992.9
2018-03-08T10:13:41.998Z,992.9
2018-03-08T10:14:44.425Z,992.8
2018-03-08T10:15:47.149Z,992.8
2018-03-08T10:16:49.567Z,992.9
2018-03-08T10:17:51.993Z,992.9
2018-03-08T10:18:54.406Z,992.9
2018-03-08T10:19:56.829Z,992.9
2018-03-08T10:20:59.564Z,992.9
2018-03-08T10:22:01.986Z,992.9
2018-03-08T10:23:04.417Z,992.9
2018-03-08T10:24:06.843Z,992.9
2018-03-08T10:25:09.554Z,992.9
2018-03-08T10:26:11.992Z,992.9
2018-03-08T10:27:14.717Z,992.9
2018-03-08T10:28:17.136Z,993
2018-03-08T10:29:19.554Z,993
2018-03-08T10:30:21.987Z,992.9
2018-03-08T10:31:24.406Z,992.9
2018-03-08T10:32:26.837Z,993
2018-03-08T10:33:29.258Z,993
2018-03-08T10:34:31.986Z,993
2018-03-08T10:35:34.428Z,993
2018-03-08T10:36:36.859Z,993
2018-03-08T10:37:39.572Z,993
2018-03-08T10:38:41.998Z,993
2018-03-08T10:39:44.754Z,993
2018-03-08T10:40:47.143Z,993.1
2018-03-08T10:41:49.573Z,993.1
2018-03-08T10:42:51.976Z,993
2018-03-08T10:43:54.398Z,993.1
2018-03-08T10:44:56.834Z,993.1
2018-03-08T10:45:59.254Z,993.1
2018-03-08T10:47:01.670Z,993.1
2018-03-08T10:48:04.100Z,993.1
2018-03-08T10:49:06.558Z,993.1
2018-03-08T10:50:08.947Z,993.1
2018-03-08T10:51:11.377Z,993.1
2018-03-08T10:52:13.816Z,993.1
2018-03-08T10:53:16.243Z,993
2018-03-08T10:54:18.728Z,993
2018-03-08T10:55:21.104Z,993.1
2018-03-08T10:56:23.525Z,993
2018-03-08T10:57:26.242Z,993.1
2018-03-08T10:58:28.661Z,993.1
2018-03-08T10:59:31.080Z,993
2018-03-08T11:00:33.557Z,993.1
2018-03-08T11:01:36.245Z,993
2018-03-08T11:02:38.676Z,993.1
2018-03-08T11:03:42.277Z,993.1
2018-03-08T11:04:43.518Z,993.1
2018-03-08T11:05:46.166Z,993.1
2018-03-08T11:06:49.502Z,993.1
2018-03-08T11:07:53.662Z,993.1
2018-03-08T11:08:56.107Z,993.1
2018-03-08T11:09:58.537Z,993.1
2018-03-08T11:11:00.960Z,993.1
2018-03-08T11:12:03.441Z,993.1
2018-03-08T11:13:05.818Z,993.1
2018-03-08T11:14:08.236Z,993.1
2018-03-08T11:15:10.955Z,993.2
2018-03-08T11:16:13.404Z,993.2
2018-03-08T11:17:15.802Z,993.1
2018-03-08T11:18:18.243Z,993.2
2018-03-08T11:19:20.964Z,993.2
2018-03-08T11:20:23.673Z,993.2
2018-03-08T11:21:26.103Z,993.1
2018-03-08T11:22:28.534Z,993.1
2018-03-08T11:23:30.966Z,993.2
2018-03-08T11:24:33.681Z,993.2
2018-03-08T11:25:36.098Z,993.2
2018-03-08T11:26:38.521Z,993.2
2018-03-08T11:27:40.965Z,993.2
2018-03-08T11:28:43.388Z,993.2
2018-03-08T11:29:45.826Z,993.2
2018-03-08T11:30:48.249Z,993.2
2018-03-08T11:31:50.670Z,993.2
2018-03-08T11:32:53.409Z,993.2
2018-03-08T11:33:55.832Z,993.2
2018-03-08T11:34:58.249Z,993.2
2018-03-08T11:36:00.680Z,993.2
2018-03-08T11:37:03.107Z,993.1
2018-03-08T11:38:05.821Z,993.2
2018-03-08T11:39:08.255Z,993.2
2018-03-08T11:40:10.971Z,993.2
2018-03-08T11:41:13.697Z,993.2
2018-03-08T11:42:16.419Z,993.2
2018-03-08T11:43:19.130Z,993.1
2018-03-08T11:44:21.559Z,993.2
2018-03-08T11:45:23.986Z,993.2
2018-03-08T11:46:26.428Z,993.2
2018-03-08T11:47:29.126Z,993.2
2018-03-08T11:48:31.557Z,993.2
2018-03-08T11:49:35.627Z,993.2
2018-03-08T11:50:38.064Z,993.2
2018-03-08T11:51:40.490Z,993.3
2018-03-08T11:52:42.917Z,993.2
2018-03-08T11:53:45.332Z,993.2
2018-03-08T11:54:47.827Z,993.2
2018-03-08T11:55:50.186Z,993.2
2018-03-08T11:56:52.619Z,993.2
2018-03-08T11:57:55.044Z,993.2
2018-03-08T11:58:57.474Z,993.1
2018-03-08T12:00:00.175Z,993.2
2018-03-08T12:01:02.602Z,993.2
2018-03-08T12:02:05.024Z,993.1
2018-03-08T12:03:07.457Z,993.1
2018-03-08T12:04:09.893Z,993.1
2018-03-08T12:05:12.332Z,993.1
2018-03-08T12:06:15.030Z,993.1
2018-03-08T12:07:17.476Z,993.1
2018-03-08T12:08:20.183Z,993.1
2018-03-08T12:09:22.900Z,993.2
2018-03-08T12:10:25.322Z,993.1
2018-03-08T12:11:27.750Z,993.1
2018-03-08T12:12:30.174Z,993.1
2018-03-08T12:13:32.608Z,993.1
2018-03-08T12:14:35.038Z,993.1
2018-03-08T12:15:37.461Z,993.1
2018-03-08T12:16:39.900Z,993.1
2018-03-08T12:17:42.327Z,993.1
2018-03-08T12:18:44.754Z,993.1
2018-03-08T12:19:47.176Z,993.2
2018-03-08T12:20:49.610Z,993.2
2018-03-08T12:21:52.034Z,993.2
2018-03-08T12:22:54.459Z,993.2
2018-03-08T12:23:56.884Z,993.2
2018-03-08T12:24:59.310Z,993.2
2018-03-08T12:26:01.728Z,993.2
2018-03-08T12:27:04.468Z,993.1
2018-03-08T12:28:06.941Z,993.2
2018-03-08T12:29:09.325Z,993.1
2018-03-08T12:30:12.319Z,993.1
2018-03-08T12:31:14.746Z,993.1
2018-03-08T12:32:17.179Z,993.1
2018-03-08T12:33:19.616Z,993.1
2018-03-08T12:34:22.044Z,993.1
2018-03-08T12:35:25.074Z,993.1
2018-03-08T12:36:27.497Z,993.1
2018-03-08T12:37:30.213Z,993.1
2018-03-08T12:38:32.656Z,993
2018-03-08T12:39:35.473Z,993
2018-03-08T12:40:37.863Z,993
2018-03-08T12:41:40.297Z,992.9
2018-03-08T12:42:42.730Z,992.9
2018-03-08T12:43:45.452Z,992.8
2018-03-08T12:44:47.880Z,992.8
2018-03-08T12:45:50.613Z,992.9
2018-03-08T12:46:53.034Z,992.8
2018-03-08T12:47:55.469Z,992.8
2018-03-08T12:48:57.907Z,992.8
2018-03-08T12:50:00.338Z,992.8
2018-03-08T12:51:02.759Z,992.8
2018-03-08T12:52:05.194Z,992.8
2018-03-08T12:53:07.635Z,992.8
2018-03-08T12:54:10.064Z,992.8
2018-03-08T12:55:12.488Z,992.8
2018-03-08T12:56:14.919Z,992.8
2018-03-08T12:57:17.360Z,992.8
2018-03-08T12:58:19.795Z,992.9
2018-03-08T12:59:22.505Z,992.8
2018-03-08T13:00:24.968Z,992.8
2018-03-08T13:01:27.400Z,992.8
2018-03-08T13:02:29.833Z,992.8
2018-03-08T13:03:32.266Z,992.8
2018-03-08T13:04:34.702Z,992.9
2018-03-08T13:05:37.403Z,992.8
2018-03-08T13:06:39.836Z,992.7
2018-03-08T13:07:42.269Z,992.7
2018-03-08T13:08:44.708Z,992.8
2018-03-08T13:09:47.425Z,992.8
2018-03-08T13:10:50.136Z,992.8
2018-03-08T13:11:52.565Z,992.8
2018-03-08T13:12:55.304Z,992.8
2018-03-08T13:13:57.741Z,992.7
2018-03-08T13:15:00.170Z,992.7
2018-03-08T13:16:02.602Z,992.8
2018-03-08T13:17:05.675Z,992.7
2018-03-08T13:18:09.242Z,992.7
2018-03-08T13:19:14.046Z,992.7
2018-03-08T13:20:18.037Z,992.7
2018-03-08T13:21:22.132Z,992.7
2018-03-08T13:22:26.855Z,992.7
2018-03-08T13:23:30.224Z,992.7
2018-03-08T13:24:33.815Z,992.8
2018-03-08T13:25:36.253Z,992.8
2018-03-08T13:26:38.683Z,992.8
2018-03-08T13:27:41.100Z,992.8